Observations for GROSSETO IT-AFB, Italy (LIRS)

LIRS 100155Z 07006KT CAVOK 14/10 Q1011  
LIRS 100155Z 07006KT CAVOK 14/10 Q1011 RMK SKC VIS MIN 9999 WIND THR03 27008KT WIND THR21 26007KT BLU
LIRS 100055Z 25004KT CAVOK 15/10 Q1011  
LIRS 100055Z 25004KT CAVOK 15/10 Q1011 RMK SKC VIS MIN 9999 WIND THR03 25004KT WIND THR21 28006KT BLU
LIRS 092355Z 24006KT CAVOK 14/10 Q1011  
LIRS 092355Z 24006KT CAVOK 14/10 Q1011 RMK SKC VIS MIN 9999 WIND THR03 24008KT WIND THR21 27004KT BLU
LIRS 092255Z 22009KT CAVOK 14/10 Q1011  
LIRS 092255Z 22009KT CAVOK 14/10 Q1011 RMK SKC VIS MIN 9999 WIND THR03 23010KT WIND THR21 23008KT BLU
LIRS 092155Z 23006KT 9999 FEW020 13/09 Q1011
LIRS 092155Z 23006KT 9999 FEW020 13/09 Q1011 RMK FEW VIS MIN 9999 WIND THR03 25006KT WIND THR21 24003KT BLU
LIRS 092055Z 31003KT CAVOK 14/08 Q1011  
LIRS 092055Z 31003KT CAVOK 14/08 Q1011 RMK SKC VIS MIN 9999 WIND THR03 24002KT WIND THR21 31004KT BLU
LIRS 091955Z 28014G24KT 9999 FEW030 15/09 Q1010 
LIRS 091955Z 28014G24KT 9999 FEW030 15/09 Q1010 RMK FEW VIS MIN 9999 WIND THR0329016KT WIND THR21 29017KT BLU
LIRS 091855Z 29018G29KT 9999 FEW030 15/09 Q1009 
LIRS 091855Z 29018G29KT 9999 FEW030 15/09 Q1009 RMK FEW VIS MIN 9999 WIND THR0329018G28KT WIND THR21 30021KT BLU
LIRS 091755Z 29021G33KT 9999 FEW030 15/09 Q1008 
LIRS 091755Z 29021G33KT 9999 FEW030 15/09 Q1008 RMK FEW VIS MIN 9999 WIND THR0329020G32KT WIND THR21 30021G35KT BLU
LIRS 091655Z 27016G28KT 9999 FEW030 15/09 Q1009 
LIRS 091655Z 27016G28KT 9999 FEW030 15/09 Q1009 RMK FEW VIS MIN 9999 WIND THR0328017KT WIND THR21 27016G28KT BLU
LIRS 091555Z 27019G33KT 9999 SCT030 15/07 Q1009 
LIRS 091555Z 27019G33KT 9999 SCT030 15/07 Q1009 RMK SCT VIS MIN 9999 WIND THR0328020KT WIND THR21 27016KT BLU
LIRS 091455Z 28025G36KT 9999 SCT030 16/08 Q1009 
LIRS 091455Z 28025G36KT 9999 SCT030 16/08 Q1009 RMK SCT VIS MIN 9999 WIND THR0328023KT WIND THR21 29021KT BLU
LIRS 091355Z 28026G36KT 9999 SCT030 18/09 Q1008 
LIRS 091355Z 28026G36KT 9999 SCT030 18/09 Q1008 RMK SCT VIS MIN 9999 WIND THR0328027KT WIND THR21 28024KT BLU
LIRS 091255Z 28018G35KT 9999 SCT030 18/09 Q1009 
LIRS 091255Z 28018G35KT 9999 SCT030 18/09 Q1009 RMK SCT VIS MIN 9999 WIND THR0328019KT WIND THR21 28015KT BLU
LIRS 091155Z 28024KT 9999 SCT025 17/10 Q1010
LIRS 091155Z 28024KT 9999 SCT025 17/10 Q1010 RMK BKN SCT200 VIS MIN 9999 WIND THR03 29013KT WIND THR21 27010KT BLU
LIRS 091055Z 15007KT 9999 SCT040 16/10 Q1011
LIRS 091055Z 15007KT 9999 SCT040 16/10 Q1011 RMK BKN BKN200 VIS MIN 9999 WIND THR03 14005KT WIND THR21 17005KT BLU
LIRS 090955Z VRB05KT 9999 FEW030 14/09 Q1011
LIRS 090955Z VRB05KT 9999 FEW030 14/09 Q1011 RMK BKN SCT200 VIS MIN 9999 WIND THR03 13007KT WIND THR21 14002KT BLU
LIRS 090855Z 36007KT CAVOK 10/07 Q1012  
LIRS 090855Z 36007KT CAVOK 10/07 Q1012 RMK SCT SCT200 VIS MIN 9999 WIND THR03 05004KT WIND THR21 36005KT BLU
LIRS 090755Z 03003KT CAVOK 03/03 Q1013  
LIRS 090755Z 03003KT CAVOK 03/03 Q1013 RMK SCT SCT200 VIS MIN 9999 WIND THR03 06004KT WIND THR21 03004KT BLU
LIRS 090655Z 36003KT 9999 FEW050 02/01 Q1014
LIRS 090655Z 36003KT 9999 FEW050 02/01 Q1014 RMK BKN SCT100 VIS MIN 9999 WIND THR03 02003KT 360V060 WIND THR21 VRB02KT BLU
LIRS 090555Z 02005KT 9999 FEW060 02/02 Q1014
LIRS 090555Z 02005KT 9999 FEW060 02/02 Q1014 RMK FEW VIS MIN 9999 WIND THR03 01005KT WIND THR21 03004KT BLU
LIRS 090455Z 03004KT CAVOK 02/02 Q1015  
LIRS 090455Z 03004KT CAVOK 02/02 Q1015 RMK SKC VIS MIN 9999 WIND THR03 02005KT WIND THR21 04003KT BLU
LIRS 090355Z 05004KT CAVOK 03/02 Q1016  
LIRS 090355Z 05004KT CAVOK 03/02 Q1016 RMK SKC VIS MIN 9999 WIND THR03 05005KT WIND THR21 05003KT 020V080 BLU
LIRS 090255Z 05004KT 010V080 CAVOK 03/02 Q1016  
LIRS 090255Z 05004KT 010V080 CAVOK 03/02 Q1016 RMK SKC VIS MIN 9999 WIND THR03 06006KT WIND THR21 02004KT BLU
LIRS 090155Z 02005KT CAVOK 03/02 Q1016  
LIRS 090155Z 02005KT CAVOK 03/02 Q1016 RMK SKC VIS MIN 9999 WIND THR03 03006KT WIND THR21 03004KT BLU